Terminal Aerodrome Forecast
Issued by NWS Tulsa, OK

Home | Current Version | Previous Version | Text Only | Print | Product List | Glossary On
Versions: 1 2 3 4 5 6 7 8 9 10 11 12 13 14 15 16 17 18
000
FTUS44 KTSA 241140
TAFTUL
TAF
KTUL 241140Z 2412/2512 VRB04KT 2SM BR OVC003
      TEMPO 2412/2414 1/2SM FG OVC002
     FM241500 VRB06KT 3SM -RA BKN006
      TEMPO 2416/2418 2SM -TSRA BR BKN015CB
     FM242000 28011KT P6SM BKN015 BKN025
     FM250200 31004KT P6SM SKC=

USA.gov is the U.S. government's official web portal to all federal, state and local government web resources and services.